Breezy Point, Minnesota
Current Conditions -  °F | °C
As of 1:54 PM on Wednesday 17 Dec 2014 (Local Time) from KPWC Reporting Station
Clear Clear  
Wind Chill: 18°   Ceiling: Unl
Heat Index: 18°   Visibility: 10mi
Dew Point: 10°   Wind: 3mph
Humidity: 73%   Direction: 330°NNW
Pressure: 30.3"   Gusts: NA
Location:  46.6832°N, 94.2515°W
Report Text: KPWC 171954Z AUTO 33003KT 10SM CLR M08/M12 A3030 RMK AO2
Loading
Personal Weather Stations






























Interactive Weather Map New forecast layout! Learn more

10-Day Weather Forecast

Advertisements
Track Severe Weather on mobile